Time;durP1;ratioP1;P1;durP2;ratioP2;P2;SDS_P1;SDS_P2;PMS_P1;PMS_P2;Temp;Humidity;BMP_temperature;BMP_pressure;BME280_temperature;BME280_humidity;BME280_pressure;Samples;Min_cycle;Max_cycle;Signal;HPM_P1;HPM_P2
2023/12/20 00:00:58;;;;;;;2.10;1.90;;;5.40;1.00;;;;;;5071573;28;20041;-86
2023/12/20 00:03:46;;;;;;;1.77;1.67;;;5.40;1.00;;;;;;5074046;28;20472;-86
2023/12/20 00:06:38;;;;;;;1.88;1.77;;;5.40;1.00;;;;;;5068266;28;20044;-85
2023/12/20 00:09:25;;;;;;;3.20;2.15;;;5.40;1.00;;;;;;5065466;28;20147;-81
2023/12/20 00:12:12;;;;;;;2.20;1.90;;;5.40;1.00;;;;;;5069611;28;20480;-86
2023/12/20 00:15:00;;;;;;;1.65;1.55;;;5.40;1.00;;;;;;5074950;28;20381;-84
2023/12/20 00:17:47;;;;;;;1.85;1.60;;;5.40;1.00;;;;;;5077090;28;20070;-83
2023/12/20 00:20:36;;;;;;;1.55;1.45;;;5.40;30.60;;;;;;5072588;28;20100;-84
2023/12/20 00:23:24;;;;;;;1.58;1.48;;;5.40;1.00;;;;;;5067038;28;20055;-87
2023/12/20 00:26:11;;;;;;;2.03;1.58;;;5.30;99.90;;;;;;5065993;28;20442;-85
2023/12/20 00:28:58;;;;;;;1.73;1.63;;;5.20;1.00;;;;;;5072794;28;20040;-85
2023/12/20 00:31:45;;;;;;;1.40;1.30;;;5.20;99.90;;;;;;5072696;28;20044;-83
2023/12/20 00:34:35;;;;;;;1.77;1.67;;;5.10;99.90;;;;;;5071685;28;20076;-86
2023/12/20 00:37:25;;;;;;;1.80;1.60;;;5.10;99.90;;;;;;5053237;28;20044;-85
2023/12/20 00:40:15;;;;;;;1.67;1.52;;;5.10;1.00;;;;;;5066606;28;20051;-84
2023/12/20 00:43:02;;;;;;;2.95;1.50;;;5.00;1.00;;;;;;5072281;28;20049;-86
2023/12/20 00:45:52;;;;;;;2.70;1.50;;;5.00;1.00;;;;;;5073716;28;20048;-80
2023/12/20 00:48:42;;;;;;;3.05;1.80;;;5.00;1.00;;;;;;5074402;28;20036;-84
2023/12/20 00:51:31;;;;;;;1.55;1.45;;;5.00;25.80;;;;;;5069440;28;20056;-84
2023/12/20 00:54:18;;;;;;;2.00;1.67;;;4.90;36.70;;;;;;5057705;28;20056;-79
2023/12/20 00:57:08;;;;;;;2.20;1.80;;;4.90;50.60;;;;;;5068951;28;20048;-85
2023/12/20 00:59:57;;;;;;;1.77;1.67;;;4.90;58.40;;;;;;5062119;28;20045;-84
2023/12/20 01:02:46;;;;;;;2.30;1.40;;;4.90;83.80;;;;;;5053162;28;20388;-87
2023/12/20 01:05:33;;;;;;;1.90;1.80;;;4.80;99.80;;;;;;5055468;28;20343;-86
2023/12/20 01:08:21;;;;;;;2.40;2.10;;;4.80;99.90;;;;;;5056811;28;20045;-85
2023/12/20 01:11:08;;;;;;;5.10;2.30;;;4.80;99.90;;;;;;5076861;28;20475;-85
2023/12/20 01:13:56;;;;;;;2.33;1.65;;;4.80;99.90;;;;;;5057376;28;20049;-85
2023/12/20 01:16:43;;;;;;;2.90;1.98;;;4.70;99.90;;;;;;5054918;28;20052;-85
2023/12/20 01:19:30;;;;;;;3.83;2.17;;;4.70;99.90;;;;;;5074510;28;20047;-86
2023/12/20 01:22:19;;;;;;;6.25;2.20;;;4.70;99.90;;;;;;5072192;28;20041;-85
2023/12/20 01:25:07;;;;;;;3.10;2.30;;;4.70;99.90;;;;;;5069316;28;20045;-85
2023/12/20 01:27:54;;;;;;;2.75;2.28;;;4.70;99.90;;;;;;5071007;28;20041;-86
2023/12/20 01:30:42;;;;;;;2.67;2.17;;;4.60;99.90;;;;;;5068685;28;20045;-82
2023/12/20 01:33:29;;;;;;;2.40;2.20;;;4.60;99.90;;;;;;5056063;28;20346;-84
2023/12/20 01:36:16;;;;;;;4.45;2.63;;;4.60;99.90;;;;;;5069273;28;20074;-84
2023/12/20 01:39:04;;;;;;;3.33;2.35;;;4.60;99.90;;;;;;5068975;28;20048;-85
2023/12/20 01:41:58;;;;;;;3.42;2.58;;;4.60;99.90;;;;;;5070404;28;20055;-84
2023/12/20 01:44:47;;;;;;;2.30;2.10;;;4.60;99.90;;;;;;5067304;28;20041;-85
2023/12/20 01:47:40;;;;;;;2.30;2.10;;;4.60;99.90;;;;;;5044180;28;20377;-84
2023/12/20 01:50:28;;;;;;;2.47;2.28;;;4.60;99.90;;;;;;5071606;28;20052;-86
2023/12/20 01:53:16;;;;;;;2.95;2.30;;;4.60;99.90;;;;;;5069482;28;20044;-84
2023/12/20 01:56:09;;;;;;;2.00;1.90;;;4.60;99.90;;;;;;5069338;28;20071;-86
2023/12/20 01:58:59;;;;;;;3.15;2.15;;;4.60;99.90;;;;;;5060019;28;20049;-85
2023/12/20 02:01:46;;;;;;;2.97;2.25;;;4.60;99.90;;;;;;5071993;28;20032;-85
2023/12/20 02:04:36;;;;;;;2.22;1.88;;;4.60;99.90;;;;;;5066821;28;20197;-85
2023/12/20 02:07:24;;;;;;;4.78;2.20;;;4.60;99.90;;;;;;5071278;28;20484;-86
2023/12/20 02:10:11;;;;;;;1.50;1.40;;;4.60;99.90;;;;;;5054390;28;20453;-85
2023/12/20 02:13:01;;;;;;;1.63;1.52;;;4.60;99.90;;;;;;5069732;28;20044;-85
2023/12/20 02:15:49;;;;;;;2.90;2.00;;;4.60;99.90;;;;;;5071713;28;20052;-82
2023/12/20 02:18:36;;;;;;;1.60;1.50;;;4.60;99.90;;;;;;5078745;28;20051;-86
2023/12/20 02:21:34;;;;;;;2.28;1.80;;;4.60;99.90;;;;;;5089107;28;20055;-85
2023/12/20 02:24:21;;;;;;;1.83;1.73;;;4.60;99.90;;;;;;5092101;28;20060;-85
2023/12/20 02:27:09;;;;;;;2.35;2.08;;;4.60;99.90;;;;;;5081190;28;20041;-85
2023/12/20 02:29:56;;;;;;;2.03;1.83;;;4.60;99.90;;;;;;5057754;28;20054;-86
2023/12/20 02:32:46;;;;;;;1.70;1.60;;;4.60;99.90;;;;;;5076713;28;20048;-85
2023/12/20 02:35:33;;;;;;;1.70;1.60;;;4.50;99.90;;;;;;5066870;28;20530;-86
2023/12/20 02:38:20;;;;;;;1.77;1.67;;;4.50;99.90;;;;;;5065207;28;20083;-85
2023/12/20 02:41:07;;;;;;;2.00;1.33;;;4.50;99.90;;;;;;5063605;28;20036;-85
2023/12/20 02:43:54;;;;;;;2.78;1.70;;;4.50;99.90;;;;;;5067494;28;20063;-83
2023/12/20 02:46:44;;;;;;;1.85;1.75;;;4.50;99.90;;;;;;5073761;28;20044;-84
2023/12/20 02:49:31;;;;;;;1.60;1.50;;;4.50;99.90;;;;;;5074308;28;20136;-84
2023/12/20 02:52:22;;;;;;;1.08;1.08;;;4.50;99.90;;;;;;5071246;28;20137;-86
2023/12/20 02:55:09;;;;;;;1.40;1.30;;;4.50;99.90;;;;;;5070335;28;20449;-85
2023/12/20 02:57:58;;;;;;;1.13;1.02;;;4.50;99.90;;;;;;5063592;28;20044;-86
2023/12/20 03:00:48;;;;;;;1.17;1.10;;;4.50;99.90;;;;;;5072284;28;20041;-82
2023/12/20 03:03:36;;;;;;;0.80;0.80;;;4.50;99.90;;;;;;5072955;28;20070;-84
2023/12/20 03:06:24;;;;;;;1.00;1.00;;;4.50;99.90;;;;;;5074364;28;20047;-83
2023/12/20 03:09:12;;;;;;;0.90;0.90;;;4.60;99.90;;;;;;5073697;28;20147;-85
2023/12/20 03:12:04;;;;;;;0.80;0.80;;;4.60;99.90;;;;;;5077249;28;20068;-85
2023/12/20 03:14:51;;;;;;;0.70;0.70;;;4.60;99.90;;;;;;5054539;28;20060;-84
2023/12/20 03:17:38;;;;;;;0.75;0.75;;;4.60;99.90;;;;;;5069850;28;20056;-84
2023/12/20 03:20:28;;;;;;;0.60;0.60;;;4.60;99.90;;;;;;5064649;28;20084;-85
2023/12/20 03:23:16;;;;;;;0.77;0.75;;;4.60;99.90;;;;;;5075045;28;20445;-86
2023/12/20 03:26:06;;;;;;;1.92;1.00;;;4.60;99.90;;;;;;5072694;28;20128;-85
2023/12/20 03:28:53;;;;;;;0.70;0.70;;;4.60;99.90;;;;;;5069842;28;20044;-85
2023/12/20 03:31:43;;;;;;;2.70;0.70;;;4.60;99.90;;;;;;5071943;28;20047;-85
2023/12/20 03:34:31;;;;;;;0.70;0.70;;;4.50;99.90;;;;;;5068091;28;20068;-84
2023/12/20 03:37:18;;;;;;;0.70;0.70;;;4.50;99.90;;;;;;5057997;28;20507;-85
2023/12/20 03:40:06;;;;;;;0.70;0.70;;;4.50;99.90;;;;;;5072603;28;20047;-86
2023/12/20 03:42:55;;;;;;;0.63;0.63;;;4.50;99.90;;;;;;5071626;28;20052;-82
2023/12/20 03:45:43;;;;;;;0.70;0.70;;;4.50;99.90;;;;;;5072238;28;20251;-86
2023/12/20 03:48:31;;;;;;;1.70;0.73;;;4.50;99.90;;;;;;5075608;28;20138;-85
2023/12/20 03:51:18;;;;;;;0.77;0.70;;;4.40;99.90;;;;;;5074340;28;20049;-86
2023/12/20 03:54:05;;;;;;;0.60;0.60;;;4.40;99.90;;;;;;5075399;28;20058;-87
2023/12/20 03:56:53;;;;;;;0.75;0.60;;;4.40;99.90;;;;;;5080106;28;20502;-85
2023/12/20 03:59:40;;;;;;;1.13;1.10;;;4.40;99.90;;;;;;5073275;28;20326;-86
2023/12/20 04:02:30;;;;;;;1.27;0.75;;;4.40;99.90;;;;;;5074767;28;20106;-86
2023/12/20 04:05:19;;;;;;;0.90;0.55;;;4.40;99.90;;;;;;5078896;28;20044;-85
2023/12/20 04:08:09;;;;;;;1.00;0.52;;;4.40;99.90;;;;;;5058491;28;20460;-85
2023/12/20 04:10:59;;;;;;;0.70;0.70;;;4.40;99.90;;;;;;5075172;28;20546;-86
2023/12/20 04:13:46;;;;;;;0.60;0.60;;;4.30;99.90;;;;;;5071881;28;20059;-85
2023/12/20 04:16:34;;;;;;;0.70;0.70;;;4.30;99.90;;;;;;5076717;28;20117;-85
2023/12/20 04:19:23;;;;;;;0.68;0.68;;;4.30;99.90;;;;;;5068732;28;20041;-86
2023/12/20 04:22:11;;;;;;;0.60;0.60;;;4.30;99.90;;;;;;5060207;28;20556;-86
2023/12/20 04:24:58;;;;;;;0.68;0.68;;;4.30;99.90;;;;;;5062946;28;20174;-85
2023/12/20 04:27:45;;;;;;;0.70;0.70;;;4.30;99.90;;;;;;5070727;28;20362;-82
2023/12/20 04:30:33;;;;;;;0.70;0.70;;;4.30;99.90;;;;;;5080441;28;20045;-84
2023/12/20 04:33:23;;;;;;;0.80;0.80;;;4.30;99.90;;;;;;5072283;28;20116;-86
2023/12/20 04:36:10;;;;;;;0.60;0.60;;;4.20;99.90;;;;;;5057455;28;20037;-85
2023/12/20 04:38:59;;;;;;;0.98;0.70;;;4.20;99.90;;;;;;5071054;28;20073;-86
2023/12/20 04:41:50;;;;;;;0.70;0.70;;;4.10;99.90;;;;;;5058640;28;20047;-86
2023/12/20 04:44:37;;;;;;;0.68;0.68;;;4.10;99.90;;;;;;5051953;28;20554;-84
2023/12/20 04:47:24;;;;;;;0.70;0.70;;;4.10;99.90;;;;;;5057800;28;20102;-86
2023/12/20 04:50:13;;;;;;;0.70;0.70;;;4.10;99.90;;;;;;5069971;28;20048;-84
2023/12/20 04:53:00;;;;;;;1.17;1.08;;;4.10;99.90;;;;;;5072234;28;20048;-85
2023/12/20 04:55:50;;;;;;;1.00;0.90;;;4.10;99.90;;;;;;5062606;28;20469;-85
2023/12/20 04:58:37;;;;;;;0.82;0.82;;;4.10;99.90;;;;;;5069346;28;20045;-85
2023/12/20 05:01:24;;;;;;;0.80;0.80;;;4.10;99.90;;;;;;5066677;28;20703;-84
2023/12/20 05:04:14;;;;;;;1.10;0.80;;;4.10;99.90;;;;;;5069960;28;20087;-86
2023/12/20 05:07:01;;;;;;;1.13;0.70;;;4.00;99.90;;;;;;5069279;28;20048;-85
2023/12/20 05:09:48;;;;;;;2.15;0.60;;;4.10;99.90;;;;;;5082924;28;20040;-85
2023/12/20 05:12:36;;;;;;;1.88;0.82;;;4.10;99.90;;;;;;5061082;28;20056;-83
2023/12/20 05:15:23;;;;;;;0.80;0.80;;;4.10;99.90;;;;;;5069240;28;20448;-86
2023/12/20 05:18:13;;;;;;;1.20;0.77;;;4.10;99.90;;;;;;5074806;28;20049;-85
2023/12/20 05:21:00;;;;;;;1.33;0.75;;;4.10;99.90;;;;;;5073189;28;20186;-85
2023/12/20 05:23:50;;;;;;;1.17;0.80;;;4.10;99.90;;;;;;5069665;28;20044;-85
2023/12/20 05:26:37;;;;;;;1.73;1.48;;;4.10;99.90;;;;;;5065671;28;20036;-86
2023/12/20 05:29:26;;;;;;;1.98;1.58;;;4.10;99.90;;;;;;5064996;28;20044;-86
2023/12/20 05:32:13;;;;;;;1.25;1.10;;;4.10;99.90;;;;;;5064947;28;20048;-86
2023/12/20 05:35:00;;;;;;;0.98;0.95;;;4.10;99.90;;;;;;5068793;28;20052;-85
2023/12/20 05:37:47;;;;;;;0.77;0.73;;;4.10;99.90;;;;;;5068311;28;20346;-85
2023/12/20 05:40:37;;;;;;;1.30;0.80;;;4.20;99.90;;;;;;5073877;28;20063;-84
2023/12/20 05:43:24;;;;;;;0.88;0.88;;;4.20;99.90;;;;;;5072381;28;20485;-85
2023/12/20 05:46:12;;;;;;;1.20;1.10;;;4.20;99.90;;;;;;5061755;28;20048;-85
2023/12/20 05:48:59;;;;;;;1.73;1.02;;;4.20;99.90;;;;;;5067158;28;20041;-84
2023/12/20 05:51:49;;;;;;;1.08;0.80;;;4.20;99.90;;;;;;5076108;28;20485;-80
2023/12/20 05:54:37;;;;;;;0.93;0.93;;;4.20;99.90;;;;;;5067517;28;20123;-85
2023/12/20 05:57:24;;;;;;;6.30;1.67;;;4.20;99.90;;;;;;5057936;28;20051;-86
2023/12/20 06:00:15;;;;;;;2.67;1.48;;;4.10;99.90;;;;;;5058541;28;20447;-88
2023/12/20 06:05:47;;;;;;;1.73;1.10;;;4.10;99.90;;;;;;5594514;22;20093;-79
2023/12/20 06:08:37;;;;;;;0.90;0.90;;;4.10;99.90;;;;;;5084268;28;20062;-78
2023/12/20 06:11:29;;;;;;;1.70;1.33;;;4.10;99.90;;;;;;5069493;28;20060;-80
2023/12/20 06:14:17;;;;;;;1.45;1.27;;;4.00;99.90;;;;;;5054785;28;20123;-83
2023/12/20 06:17:04;;;;;;;2.80;1.20;;;4.10;99.90;;;;;;5056878;28;20041;-81
2023/12/20 06:19:51;;;;;;;1.95;1.25;;;4.00;99.90;;;;;;5059529;28;20166;-82
2023/12/20 06:22:39;;;;;;;1.67;1.10;;;4.10;99.90;;;;;;5053712;28;20049;-81
2023/12/20 06:25:26;;;;;;;4.05;1.75;;;4.00;99.90;;;;;;5053646;28;20128;-81
2023/12/20 06:28:14;;;;;;;2.58;1.73;;;4.00;99.90;;;;;;5049544;28;20044;-83
2023/12/20 06:31:02;;;;;;;3.35;1.80;;;4.00;99.90;;;;;;5051487;28;20044;-83
2023/12/20 06:33:57;;;;;;;2.53;1.70;;;4.00;99.90;;;;;;5047626;28;20437;-78
2023/12/20 06:36:45;;;;;;;1.35;1.25;;;4.10;99.90;;;;;;5054967;28;20125;-82
2023/12/20 06:39:33;;;;;;;1.77;1.30;;;4.00;99.90;;;;;;5056870;28;20060;-83
2023/12/20 06:42:21;;;;;;;1.55;1.45;;;4.10;99.90;;;;;;5044574;28;20138;-79
2023/12/20 06:45:10;;;;;;;3.78;2.00;;;4.10;99.90;;;;;;5043732;28;20116;-81
2023/12/20 06:48:00;;;;;;;4.28;3.20;;;4.00;99.90;;;;;;5049456;28;20046;-82
2023/12/20 06:50:50;;;;;;;4.78;3.05;;;4.10;99.90;;;;;;5054402;28;20473;-84
2023/12/20 06:53:40;;;;;;;3.42;1.88;;;4.10;99.90;;;;;;5048625;28;20449;-82
2023/12/20 06:56:27;;;;;;;4.50;2.70;;;4.10;99.90;;;;;;5046681;28;20055;-83
2023/12/20 06:59:15;;;;;;;3.35;2.70;;;4.10;99.90;;;;;;5054150;28;20117;-81
2023/12/20 07:02:03;;;;;;;3.42;2.75;;;4.10;99.90;;;;;;5052465;28;20642;-81
2023/12/20 07:04:50;;;;;;;6.30;3.75;;;4.00;99.90;;;;;;5052409;28;20068;-82
2023/12/20 07:07:37;;;;;;;2.75;2.20;;;4.10;99.90;;;;;;5053315;28;20051;-81
2023/12/20 07:10:24;;;;;;;3.67;2.28;;;4.10;99.90;;;;;;5048387;28;20666;-80
2023/12/20 07:13:12;;;;;;;21.85;9.75;;;4.10;99.90;;;;;;5073490;28;20044;-78
2023/12/20 07:16:00;;;;;;;10.48;5.57;;;4.00;99.90;;;;;;5072337;28;20047;-81
2023/12/20 07:18:48;;;;;;;7.85;4.68;;;4.00;99.90;;;;;;5058693;28;20468;-82
2023/12/20 07:21:35;;;;;;;3.35;2.53;;;4.10;99.90;;;;;;5052182;28;20433;-83
2023/12/20 07:24:22;;;;;;;5.28;3.17;;;4.10;99.90;;;;;;5069325;28;20040;-83
2023/12/20 07:27:09;;;;;;;6.05;3.95;;;4.10;99.90;;;;;;5050067;28;20143;-83
2023/12/20 07:29:58;;;;;;;12.52;4.75;;;4.10;99.90;;;;;;5070074;28;20162;-82
2023/12/20 07:32:47;;;;;;;4.90;3.00;;;4.10;99.90;;;;;;5053014;28;20049;-82
2023/12/20 07:35:34;;;;;;;1.88;1.77;;;4.20;99.90;;;;;;5069584;28;20465;-81
2023/12/20 07:38:24;;;;;;;2.28;1.92;;;4.20;99.90;;;;;;5064806;28;20128;-80
2023/12/20 07:41:11;;;;;;;3.28;2.13;;;4.20;99.90;;;;;;5063022;28;20052;-79
2023/12/20 07:43:59;;;;;;;1.88;1.70;;;4.20;99.90;;;;;;5074047;28;20181;-79
2023/12/20 07:46:57;;;;;;;;;;;;;;;;;;;;;
2023/12/20 07:49:51;;;;;;;2.58;1.80;;;4.30;99.90;;;;;;5066670;28;20072;-80
2023/12/20 07:52:39;;;;;;;1.92;1.80;;;4.30;99.90;;;;;;5070468;28;20048;-81
2023/12/20 07:55:26;;;;;;;7.03;3.05;;;4.30;99.90;;;;;;5069200;28;20044;-81
2023/12/20 07:58:20;;;;;;;8.88;3.53;;;4.30;99.90;;;;;;5056599;28;20436;-81
2023/12/20 08:01:11;;;;;;;7.72;5.20;;;4.30;99.90;;;;;;5071895;28;20044;-83
2023/12/20 08:03:59;;;;;;;6.40;4.57;;;4.30;99.90;;;;;;5054856;28;20064;-82
2023/12/20 08:06:46;;;;;;;8.43;4.53;;;4.30;99.90;;;;;;5069328;28;20051;-82
2023/12/20 08:09:36;;;;;;;6.50;3.90;;;4.30;99.90;;;;;;5072785;28;20052;-82
2023/12/20 08:12:25;;;;;;;5.25;4.63;;;4.30;99.90;;;;;;5052370;28;20120;-85
2023/12/20 08:15:14;;;;;;;5.93;4.10;;;4.20;99.90;;;;;;5046978;28;20056;-84
2023/12/20 08:18:04;;;;;;;5.72;4.15;;;4.20;99.90;;;;;;5045024;28;20048;-84
2023/12/20 08:20:54;;;;;;;7.18;3.92;;;4.30;99.90;;;;;;5048886;28;20063;-82
2023/12/20 08:23:41;;;;;;;5.88;4.53;;;4.30;99.90;;;;;;5050899;28;20060;-82
2023/12/20 08:26:32;;;;;;;9.35;5.30;;;4.30;99.90;;;;;;5051370;28;20049;-82
2023/12/20 08:29:21;;;;;;;7.43;4.38;;;4.30;99.90;;;;;;5051446;28;20136;-84
2023/12/20 08:32:09;;;;;;;6.75;4.90;;;4.30;99.90;;;;;;5050629;28;20049;-84
2023/12/20 08:34:56;;;;;;;8.48;5.70;;;4.30;99.90;;;;;;5049540;28;20429;-81
2023/12/20 08:37:44;;;;;;;5.15;4.47;;;4.30;99.90;;;;;;5049232;28;20119;-82
2023/12/20 08:40:34;;;;;;;5.53;4.72;;;4.30;99.90;;;;;;5060081;28;20045;-82
2023/12/20 08:43:23;;;;;;;6.82;5.25;;;4.30;99.90;;;;;;5056429;28;20036;-83
2023/12/20 08:46:12;;;;;;;6.80;3.90;;;4.30;99.90;;;;;;5053671;28;20039;-84
2023/12/20 08:49:00;;;;;;;8.65;5.07;;;4.30;99.90;;;;;;5053958;28;20052;-84
2023/12/20 08:51:48;;;;;;;10.00;5.18;;;4.30;99.90;;;;;;5047204;28;20049;-80
2023/12/20 08:54:35;;;;;;;7.95;4.85;;;4.40;99.90;;;;;;5047152;28;20049;-83
2023/12/20 08:57:28;;;;;;;8.27;4.80;;;4.40;99.90;;;;;;5057277;28;20041;-82
2023/12/20 09:00:16;;;;;;;10.75;5.28;;;4.30;99.90;;;;;;5064669;28;20064;-85
2023/12/20 09:03:08;;;;;;;11.88;5.85;;;4.30;99.90;;;;;;5060495;28;20047;-83
2023/12/20 09:05:56;;;;;;;8.93;4.47;;;4.30;99.90;;;;;;5063218;28;20045;-83
2023/12/20 09:08:45;;;;;;;7.20;3.92;;;4.20;99.90;;;;;;5066986;28;20049;-84
2023/12/20 09:11:32;;;;;;;10.50;3.95;;;4.20;99.90;;;;;;5067116;28;20053;-83
2023/12/20 09:14:20;;;;;;;15.30;7.93;;;4.20;99.90;;;;;;5065830;28;20106;-83
2023/12/20 09:17:08;;;;;;;8.55;4.80;;;4.20;99.90;;;;;;5058864;28;20095;-85
2023/12/20 09:19:56;;;;;;;7.35;3.65;;;4.20;99.90;;;;;;5055165;28;20048;-81
2023/12/20 09:22:43;;;;;;;6.40;3.55;;;4.10;99.90;;;;;;5049077;28;20602;-82
2023/12/20 09:25:31;;;;;;;6.22;2.83;;;4.10;99.90;;;;;;5056923;28;20068;-85
2023/12/20 09:28:18;;;;;;;8.65;2.92;;;4.00;99.90;;;;;;5062555;28;20037;-84
2023/12/20 09:31:06;;;;;;;12.27;3.28;;;4.00;99.90;;;;;;5052690;28;20041;-85
2023/12/20 09:33:54;;;;;;;3.33;2.30;;;3.80;99.90;;;;;;5048265;28;20079;-83
2023/12/20 09:36:46;;;;;;;7.95;3.50;;;3.80;99.90;;;;;;5057489;28;20365;-84
2023/12/20 09:39:36;;;;;;;6.47;3.47;;;4.00;99.90;;;;;;5057504;28;20040;-84
2023/12/20 09:42:44;;;;;;;9.25;2.67;;;4.70;99.90;;;;;;5058167;28;20041;-84
2023/12/20 09:45:32;;;;;;;6.47;2.30;;;5.60;99.90;;;;;;5051922;28;20045;-83
2023/12/20 09:48:20;;;;;;;8.18;2.08;;;7.00;99.90;;;;;;5049426;28;20076;-81
2023/12/20 09:51:07;;;;;;;9.95;1.85;;;8.00;99.90;;;;;;5049618;28;20373;-84
2023/12/20 09:54:03;;;;;;;3.90;1.80;;;8.10;1.00;;;;;;5052247;28;20376;-82
2023/12/20 09:56:51;;;;;;;12.05;2.20;;;8.30;1.00;;;;;;5050601;28;20056;-84
2023/12/20 09:59:41;;;;;;;8.20;1.77;;;7.80;1.00;;;;;;5053953;28;20364;-84
2023/12/20 10:02:32;;;;;;;9.27;2.80;;;7.30;99.90;;;;;;5049920;28;20048;-82
2023/12/20 10:05:26;;;;;;;5.18;2.10;;;6.60;1.00;;;;;;5050485;28;20049;-82
2023/12/20 10:08:14;;;;;;;4.32;2.10;;;6.30;99.90;;;;;;5045993;28;20045;-83
2023/12/20 10:11:02;;;;;;;9.63;2.05;;;5.90;99.90;;;;;;5056764;28;20408;-82
2023/12/20 10:13:50;;;;;;;9.82;2.63;;;5.60;99.90;;;;;;5052477;28;20045;-83
2023/12/20 10:16:43;;;;;;;6.97;2.00;;;5.40;99.90;;;;;;5050845;28;20397;-83
2023/12/20 10:19:33;;;;;;;7.70;2.20;;;5.40;99.90;;;;;;5050533;28;20061;-83
2023/12/20 10:22:22;;;;;;;8.43;2.55;;;5.60;99.90;;;;;;5051127;28;20056;-83
2023/12/20 10:25:15;;;;;;;7.05;2.38;;;5.70;99.90;;;;;;5052912;28;20044;-84
2023/12/20 10:28:34;;;;;;;7.80;3.08;;;5.90;99.90;;;;;;5061089;28;20037;-81
2023/12/20 10:31:34;;;;;;;8.40;3.30;;;6.00;54.60;;;;;;5062828;28;20055;-85
2023/12/20 10:34:21;;;;;;;10.10;3.13;;;6.20;1.00;;;;;;5057638;28;20467;-83
2023/12/20 10:37:09;;;;;;;10.32;2.60;;;6.30;1.00;;;;;;5057498;28;20053;-84
2023/12/20 10:40:03;;;;;;;8.82;3.15;;;6.00;99.90;;;;;;5050173;28;20073;-83
2023/12/20 10:42:53;;;;;;;8.63;3.28;;;5.80;99.90;;;;;;5051651;28;20098;-79
2023/12/20 10:45:45;;;;;;;4.50;2.40;;;5.70;99.90;;;;;;5053262;28;20145;-83
2023/12/20 10:48:32;;;;;;;13.43;5.25;;;5.70;99.90;;;;;;5048996;28;20144;-83
2023/12/20 10:51:21;;;;;;;8.70;3.95;;;5.50;99.90;;;;;;5050241;28;20384;-79
2023/12/20 10:54:08;;;;;;;7.18;3.05;;;5.30;99.90;;;;;;5048830;28;20049;-80
2023/12/20 10:57:02;;;;;;;9.05;2.47;;;5.30;99.90;;;;;;5051334;28;20064;-83
2023/12/20 10:59:54;;;;;;;11.88;5.13;;;5.30;99.90;;;;;;5051397;28;20053;-81
2023/12/20 11:02:42;;;;;;;7.55;3.40;;;5.20;99.90;;;;;;5055807;28;20033;-81
2023/12/20 11:05:49;;;;;;;10.05;2.88;;;5.30;99.90;;;;;;5050548;28;20124;-82
2023/12/20 11:08:53;;;;;;;7.20;3.28;;;5.30;99.90;;;;;;5041600;28;20402;-82
2023/12/20 11:11:52;;;;;;;5.88;2.25;;;5.30;99.90;;;;;;5054859;28;20100;-85
2023/12/20 11:14:50;;;;;;;9.13;2.58;;;5.40;99.90;;;;;;5050068;28;20044;-83
2023/12/20 11:17:40;;;;;;;7.03;2.40;;;5.30;99.90;;;;;;5048875;28;20128;-82
2023/12/20 11:20:41;;;;;;;8.50;2.47;;;5.30;99.90;;;;;;5050425;28;20049;-83
2023/12/20 11:23:30;;;;;;;10.38;2.10;;;5.40;99.90;;;;;;5051624;28;20056;-84
2023/12/20 11:26:26;;;;;;;10.38;2.60;;;5.40;99.90;;;;;;5052998;28;20048;-81
2023/12/20 11:29:34;;;;;;;7.38;2.42;;;5.40;99.90;;;;;;5050267;28;20071;-84
2023/12/20 11:32:28;;;;;;;6.80;1.88;;;5.50;99.90;;;;;;5047404;28;20076;-84
2023/12/20 11:35:17;;;;;;;10.57;2.40;;;5.70;99.90;;;;;;5047680;28;20045;-83
2023/12/20 11:38:07;;;;;;;5.30;2.05;;;6.10;99.90;;;;;;5054394;28;20056;-83
2023/12/20 11:41:03;;;;;;;3.72;2.00;;;6.20;99.90;;;;;;5048441;28;20045;-81
2023/12/20 11:43:53;;;;;;;6.70;2.20;;;5.80;99.90;;;;;;5051230;28;20060;-83
2023/12/20 11:46:40;;;;;;;7.22;2.30;;;5.50;99.90;;;;;;5048705;28;20044;-83
2023/12/20 11:49:32;;;;;;;8.85;1.85;;;5.30;99.90;;;;;;5048718;28;20052;-83
2023/12/20 11:52:20;;;;;;;4.78;1.50;;;5.20;99.90;;;;;;5049023;28;20098;-82
2023/12/20 11:55:09;;;;;;;4.72;2.00;;;5.10;99.90;;;;;;5050791;28;20183;-79
2023/12/20 11:57:57;;;;;;;13.57;2.33;;;5.10;99.90;;;;;;5049009;28;20049;-79
2023/12/20 12:00:44;;;;;;;15.75;2.72;;;5.00;99.90;;;;;;5051813;28;20041;-82
2023/12/20 12:03:32;;;;;;;11.48;3.70;;;5.00;99.90;;;;;;5045802;28;20042;-84
2023/12/20 12:06:21;;;;;;;10.57;4.22;;;4.90;99.90;;;;;;5053712;28;20049;-82
2023/12/20 12:09:08;;;;;;;8.45;3.70;;;4.90;99.90;;;;;;5052793;28;20106;-83
2023/12/20 12:11:56;;;;;;;8.38;3.30;;;4.80;99.90;;;;;;5046478;28;20134;-82
2023/12/20 12:14:44;;;;;;;14.88;3.47;;;4.80;99.90;;;;;;5051123;28;20459;-82
2023/12/20 12:17:32;;;;;;;8.18;3.08;;;4.80;99.90;;;;;;5050713;28;20048;-83
2023/12/20 12:20:24;;;;;;;6.30;2.03;;;4.80;99.90;;;;;;5048261;28;20360;-81
2023/12/20 12:23:13;;;;;;;6.75;2.35;;;4.80;99.90;;;;;;5050517;28;20033;-84
2023/12/20 12:26:04;;;;;;;7.03;2.33;;;4.80;99.90;;;;;;5056252;28;20053;-81
2023/12/20 12:28:54;;;;;;;9.40;2.15;;;4.70;99.90;;;;;;5057566;28;20045;-82
2023/12/20 12:31:41;;;;;;;16.42;5.15;;;4.70;99.90;;;;;;5060699;28;20049;-81
2023/12/20 12:34:31;;;;;;;8.77;2.13;;;4.80;99.90;;;;;;5058709;28;20041;-82
2023/12/20 12:37:21;;;;;;;7.85;2.58;;;4.80;99.90;;;;;;5067334;28;20052;-83
2023/12/20 12:40:13;;;;;;;9.63;2.42;;;4.70;99.90;;;;;;5073241;28;20029;-82
2023/12/20 12:43:00;;;;;;;9.68;2.67;;;4.80;99.90;;;;;;5072292;28;20082;-78
2023/12/20 12:45:50;;;;;;;7.22;2.40;;;4.80;99.90;;;;;;5067911;28;20037;-82
2023/12/20 12:48:38;;;;;;;7.57;2.20;;;4.90;99.90;;;;;;5066170;28;20047;-83
2023/12/20 12:51:28;;;;;;;8.52;3.25;;;4.90;99.90;;;;;;5056424;28;20270;-78
2023/12/20 12:54:18;;;;;;;9.38;2.35;;;4.90;99.90;;;;;;5060875;28;20052;-78
2023/12/20 12:57:05;;;;;;;9.18;2.40;;;4.90;99.90;;;;;;5063760;28;20354;-82
2023/12/20 12:59:52;;;;;;;6.50;1.98;;;5.20;99.90;;;;;;5054436;28;20076;-83
2023/12/20 13:02:41;;;;;;;8.75;2.30;;;6.70;99.90;;;;;;5062676;28;20072;-85
2023/12/20 13:05:30;;;;;;;5.60;1.98;;;7.60;9.90;;;;;;5064111;28;20412;-84
2023/12/20 13:08:25;;;;;;;10.43;2.50;;;7.30;1.00;;;;;;5058725;28;20044;-83
2023/12/20 13:11:25;;;;;;;9.98;2.33;;;6.60;1.00;;;;;;5063492;28;20460;-80
2023/12/20 13:14:15;;;;;;;6.90;2.00;;;6.00;1.00;;;;;;5050571;28;20098;-83
2023/12/20 13:17:03;;;;;;;8.02;2.10;;;5.90;1.00;;;;;;5059779;28;20044;-84
2023/12/20 13:19:51;;;;;;;9.55;2.22;;;6.10;1.00;;;;;;5050394;28;20053;-82
2023/12/20 13:22:38;;;;;;;6.78;2.35;;;5.90;1.00;;;;;;5055394;28;20040;-82
2023/12/20 13:25:25;;;;;;;10.43;2.40;;;5.80;1.00;;;;;;5052275;28;20168;-81
2023/12/20 13:28:16;;;;;;;8.80;2.28;;;6.00;1.00;;;;;;5049289;28;20052;-81
2023/12/20 13:31:03;;;;;;;5.82;3.70;;;6.20;1.00;;;;;;5050407;28;20056;-83
2023/12/20 13:33:52;;;;;;;6.32;2.13;;;6.20;1.00;;;;;;5051315;28;20083;-79
2023/12/20 13:36:40;;;;;;;5.97;2.20;;;6.00;1.00;;;;;;5049283;28;20053;-82
2023/12/20 13:39:27;;;;;;;7.38;2.50;;;5.70;1.00;;;;;;5047479;28;20041;-81
2023/12/20 13:42:14;;;;;;;7.85;2.63;;;5.40;1.00;;;;;;5049868;28;20041;-80
2023/12/20 13:45:04;;;;;;;10.55;2.90;;;5.30;1.00;;;;;;5054781;28;20491;-83
2023/12/20 13:47:54;;;;;;;6.03;2.30;;;5.30;15.60;;;;;;5047559;28;20361;-83
2023/12/20 13:50:41;;;;;;;11.57;2.40;;;5.20;20.50;;;;;;5046287;28;20037;-83
2023/12/20 13:53:29;;;;;;;8.93;2.55;;;5.10;37.70;;;;;;5040298;28;20152;-81
2023/12/20 13:56:16;;;;;;;6.30;2.15;;;5.00;82.80;;;;;;5046116;28;20521;-81
2023/12/20 13:59:03;;;;;;;7.95;2.30;;;4.90;95.10;;;;;;5051631;28;20052;-82
2023/12/20 14:01:51;;;;;;;8.27;2.58;;;4.80;99.90;;;;;;5048861;28;20041;-83
2023/12/20 14:04:41;;;;;;;6.60;2.33;;;4.80;99.90;;;;;;5045148;28;20136;-82
2023/12/20 14:07:30;;;;;;;7.82;2.40;;;4.80;99.90;;;;;;5047905;28;20095;-82
2023/12/20 14:10:20;;;;;;;6.18;2.42;;;4.80;99.90;;;;;;5052149;28;20060;-80
2023/12/20 14:13:09;;;;;;;6.97;2.72;;;4.70;99.90;;;;;;5051229;28;20151;-81
2023/12/20 14:16:42;;;;;;;5.70;2.22;;;4.70;99.90;;;;;;5076856;22;20059;-82
2023/12/20 14:19:33;;;;;;;11.45;2.60;;;4.60;99.90;;;;;;5052870;22;20056;-86
2023/12/20 14:22:21;;;;;;;9.68;2.97;;;4.60;99.90;;;;;;5047056;28;20128;-85
2023/12/20 14:25:08;;;;;;;8.95;2.42;;;4.50;99.90;;;;;;5058686;28;20037;-84
2023/12/20 14:27:57;;;;;;;5.32;2.75;;;4.50;99.90;;;;;;5049301;28;20041;-81
2023/12/20 14:30:44;;;;;;;10.90;3.28;;;4.40;99.90;;;;;;5060673;28;20041;-86
2023/12/20 14:33:34;;;;;;;10.18;2.28;;;4.40;99.90;;;;;;5037366;28;20063;-87
2023/12/20 14:36:21;;;;;;;12.32;3.00;;;4.30;99.90;;;;;;5055218;28;20435;-82
2023/12/20 14:39:12;;;;;;;9.18;2.95;;;4.30;1.00;;;;;;5057975;28;20121;-84
2023/12/20 14:42:00;;;;;;;12.10;2.53;;;4.20;99.90;;;;;;5046578;28;20441;-86
2023/12/20 14:44:52;;;;;;;8.15;2.75;;;4.20;27.90;;;;;;5053432;28;20087;-84
2023/12/20 14:47:41;;;;;;;7.10;2.80;;;4.00;1.00;;;;;;5053325;28;20357;-86
2023/12/20 14:50:31;;;;;;;8.43;2.47;;;3.90;99.90;;;;;;5051903;28;20053;-86
2023/12/20 14:53:21;;;;;;;9.35;2.90;;;3.90;1.00;;;;;;5037811;28;20063;-88
2023/12/20 14:56:09;;;;;;;11.48;2.25;;;3.80;1.00;;;;;;5043253;28;20156;-86